createdAt,value
2019-02-24T00:02:57.052Z,21.71
2019-02-24T00:06:00.531Z,21.67
2019-02-24T00:09:04.747Z,21.69
2019-02-24T00:12:10.166Z,21.67
2019-02-24T00:15:13.655Z,21.66
2019-02-24T00:18:17.149Z,21.66
2019-02-24T00:21:20.652Z,21.64
2019-02-24T00:24:24.137Z,21.65
2019-02-24T00:27:27.632Z,21.61
2019-02-24T00:30:31.149Z,21.62
2019-02-24T00:33:34.678Z,21.60
2019-02-24T00:36:38.145Z,21.60
2019-02-24T00:39:41.646Z,21.58
2019-02-24T00:42:46.213Z,21.58
2019-02-24T00:45:49.702Z,21.57
2019-02-24T00:48:53.154Z,21.57
2019-02-24T00:51:57.702Z,21.56
2019-02-24T00:55:01.216Z,21.55
2019-02-24T00:58:04.713Z,21.54
2019-02-24T01:01:08.239Z,21.54
2019-02-24T01:04:11.714Z,21.52
2019-02-24T01:07:15.160Z,21.50
2019-02-24T01:10:18.724Z,21.50
2019-02-24T01:13:22.203Z,21.50
2019-02-24T01:16:25.725Z,21.48
2019-02-24T01:19:29.231Z,21.47
2019-02-24T01:22:32.701Z,21.48
2019-02-24T01:25:36.148Z,21.48
2019-02-24T01:28:39.605Z,21.47
2019-02-24T01:31:43.215Z,21.46
2019-02-24T01:34:47.744Z,21.44
2019-02-24T01:37:51.226Z,21.43
2019-02-24T01:40:54.756Z,21.44
2019-02-24T01:43:58.241Z,21.44
2019-02-24T01:47:01.749Z,21.43
2019-02-24T01:50:05.544Z,21.41
2019-02-24T01:53:09.066Z,21.41
2019-02-24T01:56:12.529Z,21.41
2019-02-24T01:59:16.172Z,21.39
2019-02-24T02:02:19.706Z,21.39
2019-02-24T02:05:23.235Z,21.39
2019-02-24T02:08:26.876Z,21.37
2019-02-24T02:11:30.440Z,21.38
2019-02-24T02:14:34.085Z,21.36
2019-02-24T02:17:37.579Z,21.36
2019-02-24T02:20:41.083Z,21.35
2019-02-24T02:23:44.707Z,21.35
2019-02-24T02:26:48.301Z,21.36
2019-02-24T02:29:51.749Z,21.33
2019-02-24T02:32:55.281Z,21.32
2019-02-24T02:35:58.799Z,21.31
2019-02-24T02:39:02.297Z,21.31
2019-02-24T02:42:05.820Z,21.33
2019-02-24T02:45:09.332Z,21.31
2019-02-24T02:48:12.858Z,21.30
2019-02-24T02:51:16.508Z,21.29
2019-02-24T02:54:20.033Z,21.29
2019-02-24T02:57:23.487Z,21.28
2019-02-24T03:00:29.852Z,21.28
2019-02-24T03:03:33.357Z,21.28
2019-02-24T03:06:41.748Z,21.25
2019-02-24T03:09:45.279Z,21.25
2019-02-24T03:12:48.792Z,21.23
2019-02-24T03:15:52.319Z,21.24
2019-02-24T03:18:55.778Z,21.25
2019-02-24T03:21:59.322Z,21.25
2019-02-24T03:25:02.798Z,21.25
2019-02-24T03:28:06.377Z,21.24
2019-02-24T03:31:09.896Z,21.23
2019-02-24T03:34:13.339Z,21.21
2019-02-24T03:37:16.796Z,21.22
2019-02-24T03:40:20.254Z,21.21
2019-02-24T03:43:24.839Z,21.18
2019-02-24T03:46:30.356Z,21.20
2019-02-24T03:49:35.898Z,21.19
2019-02-24T03:52:39.409Z,21.18
2019-02-24T03:55:44.965Z,21.17
2019-02-24T03:58:48.473Z,21.18
2019-02-24T04:01:51.983Z,21.17
2019-02-24T04:04:55.531Z,21.17
2019-02-24T04:07:58.960Z,21.17
2019-02-24T04:11:02.424Z,21.14
2019-02-24T04:14:05.995Z,21.14
2019-02-24T04:17:10.486Z,21.15
2019-02-24T04:20:13.944Z,21.14
2019-02-24T04:23:17.524Z,21.14
2019-02-24T04:26:21.002Z,21.12
2019-02-24T04:29:25.391Z,21.12
2019-02-24T04:32:29.138Z,21.13
2019-02-24T04:35:32.804Z,21.12
2019-02-24T04:38:36.436Z,21.11
2019-02-24T04:41:39.934Z,21.09
2019-02-24T04:44:43.480Z,21.11
2019-02-24T04:47:46.938Z,21.09
2019-02-24T04:50:50.438Z,21.08
2019-02-24T04:53:54.989Z,21.10
2019-02-24T04:56:58.485Z,21.08
2019-02-24T05:00:01.977Z,21.08
2019-02-24T05:03:06.493Z,21.07
2019-02-24T05:06:09.998Z,21.08
2019-02-24T05:09:13.499Z,21.07
2019-02-24T05:12:17.026Z,21.06
2019-02-24T05:15:20.501Z,21.06
2019-02-24T05:18:23.986Z,21.05
2019-02-24T05:21:27.522Z,21.05
2019-02-24T05:24:30.985Z,21.04
2019-02-24T05:27:34.494Z,21.04
2019-02-24T05:30:37.980Z,21.03
2019-02-24T05:33:41.573Z,21.02
2019-02-24T05:36:45.040Z,21.02
2019-02-24T05:39:48.541Z,21.00
2019-02-24T05:42:52.000Z,21.00
2019-02-24T05:45:55.599Z,21.01
2019-02-24T05:48:59.053Z,20.99
2019-02-24T05:52:02.519Z,21.00
2019-02-24T05:55:06.132Z,20.97
2019-02-24T05:58:09.692Z,21.00
2019-02-24T06:01:15.275Z,20.99
2019-02-24T06:04:19.780Z,20.97
2019-02-24T06:07:23.282Z,20.98
2019-02-24T06:10:27.844Z,20.97
2019-02-24T06:13:31.303Z,20.96
2019-02-24T06:16:35.823Z,20.95
2019-02-24T06:19:39.355Z,20.95
2019-02-24T06:22:42.831Z,20.95
2019-02-24T06:25:46.360Z,20.94
2019-02-24T06:28:49.827Z,20.94
2019-02-24T06:31:53.371Z,20.94
2019-02-24T06:34:57.869Z,20.94
2019-02-24T06:38:02.457Z,20.95
2019-02-24T06:41:06.095Z,20.93
2019-02-24T06:44:09.620Z,20.93
2019-02-24T06:47:13.081Z,20.93
2019-02-24T06:50:16.610Z,20.93
2019-02-24T06:53:20.069Z,20.91
2019-02-24T06:56:23.607Z,20.92
2019-02-24T06:59:27.101Z,20.93
2019-02-24T07:02:30.616Z,20.90
2019-02-24T07:05:34.158Z,20.91
2019-02-24T07:08:37.813Z,20.90
2019-02-24T07:11:41.403Z,20.90
2019-02-24T07:14:44.861Z,20.89
2019-02-24T07:17:48.341Z,20.88
2019-02-24T07:20:51.814Z,20.88
2019-02-24T07:23:55.314Z,20.89
2019-02-24T07:26:59.880Z,20.88
2019-02-24T07:30:03.376Z,20.88
2019-02-24T07:33:06.890Z,20.89
2019-02-24T07:36:10.336Z,20.89
2019-02-24T07:39:13.795Z,20.88
2019-02-24T07:42:17.343Z,20.88
2019-02-24T07:45:21.889Z,20.87
2019-02-24T07:48:25.484Z,20.88
2019-02-24T07:51:28.961Z,20.87
2019-02-24T07:54:32.486Z,20.86
2019-02-24T07:57:36.191Z,20.87
2019-02-24T08:00:39.756Z,20.87
2019-02-24T08:03:43.412Z,20.86
2019-02-24T08:06:46.999Z,20.87
2019-02-24T08:09:50.525Z,20.86
2019-02-24T08:12:54.016Z,20.86
2019-02-24T08:15:57.597Z,20.85
2019-02-24T08:19:01.207Z,20.86
2019-02-24T08:22:05.004Z,20.85
2019-02-24T08:25:08.712Z,20.87
2019-02-24T08:28:12.343Z,20.91
2019-02-24T08:31:16.845Z,20.91
2019-02-24T08:34:21.384Z,20.93
2019-02-24T08:37:24.861Z,20.94
2019-02-24T08:40:28.378Z,20.94
2019-02-24T08:43:31.901Z,20.95
2019-02-24T08:46:35.393Z,20.99
2019-02-24T08:49:38.901Z,20.98
2019-02-24T08:52:42.371Z,21.01
2019-02-24T08:55:45.941Z,21.02
2019-02-24T08:58:49.585Z,21.05
2019-02-24T09:01:54.136Z,21.05
2019-02-24T09:04:57.712Z,21.06
2019-02-24T09:08:01.311Z,21.04
2019-02-24T09:11:04.790Z,21.05
2019-02-24T09:14:09.469Z,21.06
2019-02-24T09:17:15.117Z,21.08
2019-02-24T09:20:18.758Z,21.07
2019-02-24T09:23:24.364Z,21.09
2019-02-24T09:26:29.993Z,21.10
2019-02-24T09:29:33.611Z,21.11
2019-02-24T09:32:37.122Z,21.10
2019-02-24T09:35:40.604Z,21.13
2019-02-24T09:38:44.113Z,21.13
2019-02-24T09:41:47.653Z,21.10
2019-02-24T09:44:51.158Z,21.13
2019-02-24T09:47:54.848Z,21.14
2019-02-24T09:50:58.466Z,21.13
2019-02-24T09:54:01.938Z,21.13
2019-02-24T09:57:05.609Z,21.12
2019-02-24T10:00:09.993Z,21.12
2019-02-24T10:03:13.633Z,21.14
2019-02-24T10:06:17.390Z,21.14
2019-02-24T10:09:20.979Z,21.14
2019-02-24T10:12:24.486Z,21.15
2019-02-24T10:15:27.985Z,21.15
2019-02-24T10:18:31.471Z,21.14
2019-02-24T10:21:40.902Z,21.12
2019-02-24T10:24:44.466Z,21.14
2019-02-24T10:27:48.929Z,21.12
2019-02-24T10:30:52.449Z,21.12
2019-02-24T10:33:57.010Z,21.14
2019-02-24T10:37:00.651Z,21.14
2019-02-24T10:40:05.283Z,21.15
2019-02-24T10:43:08.958Z,21.16
2019-02-24T10:46:12.632Z,21.16
2019-02-24T10:49:18.142Z,21.14
2019-02-24T10:52:21.629Z,21.15
2019-02-24T10:55:26.195Z,21.18
2019-02-24T10:58:34.819Z,21.23
2019-02-24T11:01:35.092Z,21.28
2019-02-24T11:04:38.761Z,21.34
2019-02-24T11:07:42.194Z,21.40
2019-02-24T11:10:45.803Z,21.45
2019-02-24T11:13:50.434Z,21.51
2019-02-24T11:16:53.960Z,21.53
2019-02-24T11:19:57.497Z,21.62
2019-02-24T11:23:00.951Z,21.66
2019-02-24T11:26:04.470Z,21.68
2019-02-24T11:29:08.127Z,21.72
2019-02-24T11:32:11.657Z,21.74
2019-02-24T11:35:15.162Z,21.77
2019-02-24T11:38:18.682Z,21.82
2019-02-24T11:41:22.169Z,21.85
2019-02-24T11:44:25.682Z,21.88
2019-02-24T11:47:30.203Z,21.91
2019-02-24T11:50:33.694Z,21.97
2019-02-24T11:53:37.211Z,21.98
2019-02-24T11:56:40.706Z,22.00
2019-02-24T11:59:44.217Z,22.03
2019-02-24T12:02:47.695Z,22.07
2019-02-24T12:05:51.303Z,22.12
2019-02-24T12:08:54.912Z,22.13
2019-02-24T12:11:58.430Z,22.16
2019-02-24T12:15:02.945Z,22.19
2019-02-24T12:18:06.453Z,22.23
2019-02-24T12:21:11.109Z,22.25
2019-02-24T12:24:15.000Z,22.30
2019-02-24T12:27:18.583Z,22.34
2019-02-24T12:30:22.294Z,22.36
2019-02-24T12:33:25.794Z,22.40
2019-02-24T12:36:30.336Z,22.42
2019-02-24T12:39:33.811Z,22.49
2019-02-24T12:42:37.389Z,22.51
2019-02-24T12:45:40.943Z,22.53
2019-02-24T12:48:44.408Z,22.56
2019-02-24T12:51:47.940Z,22.59
2019-02-24T12:54:51.553Z,22.61
2019-02-24T12:57:55.009Z,22.64
2019-02-24T13:00:58.522Z,22.67
2019-02-24T13:04:03.193Z,22.69
2019-02-24T13:07:06.990Z,22.71
2019-02-24T13:10:12.050Z,22.76
2019-02-24T13:13:15.504Z,22.76
2019-02-24T13:16:18.998Z,22.79
2019-02-24T13:19:22.507Z,22.80
2019-02-24T13:22:26.027Z,22.83
2019-02-24T13:25:29.540Z,22.86
2019-02-24T13:28:34.721Z,22.88
2019-02-24T13:31:38.192Z,22.91
2019-02-24T13:34:41.653Z,22.95
2019-02-24T13:37:45.158Z,22.97
2019-02-24T13:40:48.728Z,22.98
2019-02-24T13:43:52.337Z,22.99
2019-02-24T13:46:55.904Z,23.02
2019-02-24T13:49:59.458Z,23.04
2019-02-24T13:53:02.980Z,23.07
2019-02-24T13:56:07.578Z,23.07
2019-02-24T13:59:11.181Z,23.09
2019-02-24T14:02:23.595Z,23.11
2019-02-24T14:05:20.874Z,23.13
2019-02-24T14:08:24.371Z,23.14
2019-02-24T14:11:27.827Z,23.18
2019-02-24T14:14:31.327Z,23.20
2019-02-24T14:17:34.863Z,23.22
2019-02-24T14:20:38.368Z,23.23
2019-02-24T14:23:41.891Z,23.23
2019-02-24T14:26:45.378Z,23.24
2019-02-24T14:29:48.848Z,23.26
2019-02-24T14:32:52.689Z,23.25
2019-02-24T14:35:56.215Z,23.25
2019-02-24T14:38:59.779Z,23.23
2019-02-24T14:42:04.141Z,23.21
2019-02-24T14:45:13.428Z,23.21
2019-02-24T14:48:17.004Z,23.18
2019-02-24T14:51:21.586Z,23.16
2019-02-24T14:54:25.691Z,23.17
2019-02-24T14:57:29.606Z,23.15
2019-02-24T15:00:34.202Z,23.14
2019-02-24T15:03:37.719Z,23.12
2019-02-24T15:06:41.222Z,23.10
2019-02-24T15:09:44.858Z,23.11
2019-02-24T15:12:48.352Z,23.09
2019-02-24T15:15:52.096Z,23.09
2019-02-24T15:18:55.729Z,23.09
2019-02-24T15:22:00.252Z,23.08
2019-02-24T15:25:03.955Z,23.05
2019-02-24T15:28:07.399Z,23.05
2019-02-24T15:31:10.870Z,23.02
2019-02-24T15:34:14.484Z,23.02
2019-02-24T15:37:20.019Z,22.97
2019-02-24T15:40:23.569Z,22.97
2019-02-24T15:43:27.236Z,22.97
2019-02-24T15:46:30.754Z,22.97
2019-02-24T15:49:34.206Z,22.96
2019-02-24T15:52:37.719Z,22.94
2019-02-24T15:55:41.228Z,22.94
2019-02-24T15:58:44.776Z,22.92
2019-02-24T16:01:48.467Z,22.92
2019-02-24T16:04:52.029Z,22.93
2019-02-24T16:07:55.668Z,22.91
2019-02-24T16:11:00.188Z,22.91
2019-02-24T16:14:03.651Z,22.90
2019-02-24T16:17:07.075Z,22.89
2019-02-24T16:20:14.293Z,22.86
2019-02-24T16:23:17.856Z,22.86
2019-02-24T16:26:27.306Z,22.85
2019-02-24T16:29:30.801Z,22.83
2019-02-24T16:32:35.376Z,22.83
2019-02-24T16:35:38.859Z,22.83
2019-02-24T16:38:42.325Z,22.82
2019-02-24T16:41:45.824Z,22.81
2019-02-24T16:44:49.419Z,22.82
2019-02-24T16:47:53.057Z,22.81
2019-02-24T16:50:56.536Z,22.82
2019-02-24T16:54:00.051Z,22.82
2019-02-24T16:57:05.885Z,22.80
2019-02-24T17:00:11.758Z,22.79
2019-02-24T17:03:19.814Z,22.79
2019-02-24T17:06:20.800Z,22.78
2019-02-24T17:09:24.327Z,22.78
2019-02-24T17:12:27.800Z,22.77
2019-02-24T17:15:31.267Z,22.76
2019-02-24T17:18:34.904Z,22.77
2019-02-24T17:21:38.513Z,22.77
2019-02-24T17:24:43.071Z,22.75
2019-02-24T17:27:46.646Z,22.76
2019-02-24T17:30:50.234Z,22.75
2019-02-24T17:33:53.866Z,22.76
2019-02-24T17:36:57.500Z,22.76
2019-02-24T17:40:01.202Z,22.76
2019-02-24T17:43:04.970Z,22.75
2019-02-24T17:46:08.576Z,22.75
2019-02-24T17:49:12.190Z,22.75
2019-02-24T17:52:15.777Z,22.74
2019-02-24T17:55:19.282Z,22.75
2019-02-24T17:58:24.835Z,22.73
2019-02-24T18:01:28.310Z,22.74
2019-02-24T18:04:31.830Z,22.73
2019-02-24T18:07:35.430Z,22.72
2019-02-24T18:10:39.020Z,22.72
2019-02-24T18:13:42.595Z,22.73
2019-02-24T18:16:46.063Z,22.73
2019-02-24T18:19:49.581Z,22.73
2019-02-24T18:22:53.064Z,22.72
2019-02-24T18:25:56.580Z,22.73
2019-02-24T18:29:01.096Z,22.71
2019-02-24T18:32:04.586Z,22.71
2019-02-24T18:35:08.060Z,22.69
2019-02-24T18:38:11.530Z,22.71
2019-02-24T18:41:15.049Z,22.70
2019-02-24T18:44:18.506Z,22.70
2019-02-24T18:47:22.088Z,22.70
2019-02-24T18:50:25.619Z,22.70
2019-02-24T18:53:29.094Z,22.71
2019-02-24T18:56:32.538Z,22.70
2019-02-24T18:59:35.985Z,22.72
2019-02-24T19:02:39.605Z,22.67
2019-02-24T19:05:43.065Z,22.64
2019-02-24T19:08:46.737Z,22.61
2019-02-24T19:11:50.343Z,22.59
2019-02-24T19:14:54.065Z,22.56
2019-02-24T19:17:57.517Z,22.54
2019-02-24T19:21:02.033Z,22.53
2019-02-24T19:24:05.572Z,22.51
2019-02-24T19:27:09.015Z,22.49
2019-02-24T19:30:13.862Z,22.49
2019-02-24T19:33:17.505Z,22.48
2019-02-24T19:36:20.995Z,22.48
2019-02-24T19:39:24.472Z,22.46
2019-02-24T19:42:28.003Z,22.44
2019-02-24T19:45:31.456Z,22.44
2019-02-24T19:48:41.812Z,22.44
2019-02-24T19:51:40.179Z,22.43
2019-02-24T19:54:43.860Z,22.43
2019-02-24T19:57:47.361Z,22.42
2019-02-24T20:00:50.846Z,22.40
2019-02-24T20:03:54.452Z,22.40
2019-02-24T20:06:57.947Z,22.41
2019-02-24T20:10:01.551Z,22.40
2019-02-24T20:13:05.027Z,22.39
2019-02-24T20:16:09.544Z,22.37
2019-02-24T20:19:13.016Z,22.38
2019-02-24T20:22:16.551Z,22.36
2019-02-24T20:25:20.084Z,22.35
2019-02-24T20:28:23.585Z,22.35
2019-02-24T20:31:27.136Z,22.35
2019-02-24T20:34:30.650Z,22.32
2019-02-24T20:37:34.180Z,22.32
2019-02-24T20:40:37.631Z,22.33
2019-02-24T20:43:41.112Z,22.32
2019-02-24T20:46:44.760Z,22.31
2019-02-24T20:49:48.438Z,22.30
2019-02-24T20:52:51.950Z,22.30
2019-02-24T20:55:55.496Z,22.30
2019-02-24T20:58:59.422Z,22.30
2019-02-24T21:02:03.082Z,22.30
2019-02-24T21:05:07.017Z,22.29
2019-02-24T21:08:10.572Z,22.28
2019-02-24T21:11:14.116Z,22.28
2019-02-24T21:14:17.688Z,22.29
2019-02-24T21:17:21.128Z,22.28
2019-02-24T21:20:26.146Z,22.28
2019-02-24T21:23:29.622Z,22.26
2019-02-24T21:26:33.126Z,22.24
2019-02-24T21:29:36.658Z,22.21
2019-02-24T21:32:40.132Z,22.21
2019-02-24T21:35:43.731Z,22.19
2019-02-24T21:38:47.356Z,22.18
2019-02-24T21:41:50.853Z,22.18
2019-02-24T21:44:54.368Z,22.15
2019-02-24T21:47:57.832Z,22.14
2019-02-24T21:51:03.392Z,22.12
2019-02-24T21:54:07.939Z,22.12
2019-02-24T21:57:11.512Z,22.11
2019-02-24T22:00:16.906Z,22.09
2019-02-24T22:03:20.430Z,22.09
2019-02-24T22:06:23.868Z,22.06
2019-02-24T22:09:27.485Z,22.06
2019-02-24T22:12:31.173Z,22.05
2019-02-24T22:15:34.687Z,22.03
2019-02-24T22:18:38.210Z,22.03
2019-02-24T22:21:41.689Z,22.00
2019-02-24T22:24:47.366Z,21.99
2019-02-24T22:27:50.888Z,21.98
2019-02-24T22:30:54.446Z,21.96
2019-02-24T22:33:57.949Z,21.95
2019-02-24T22:37:02.474Z,21.95
2019-02-24T22:40:06.822Z,21.97
2019-02-24T22:43:10.269Z,21.92
2019-02-24T22:46:13.825Z,21.92
2019-02-24T22:49:17.289Z,21.92
2019-02-24T22:52:20.779Z,21.89
2019-02-24T22:55:24.278Z,21.89
2019-02-24T22:58:27.772Z,21.88
2019-02-24T23:01:37.920Z,21.88
2019-02-24T23:04:41.567Z,21.85
2019-02-24T23:07:46.081Z,21.85
2019-02-24T23:10:50.705Z,21.84
2019-02-24T23:13:54.754Z,21.83
2019-02-24T23:16:58.212Z,21.81
2019-02-24T23:20:01.805Z,21.82
2019-02-24T23:23:05.314Z,21.81
2019-02-24T23:26:08.828Z,21.82
2019-02-24T23:29:12.416Z,21.79
2019-02-24T23:32:16.078Z,21.78
2019-02-24T23:35:19.645Z,21.77
2019-02-24T23:38:23.151Z,21.76
2019-02-24T23:41:26.639Z,21.76
2019-02-24T23:44:30.141Z,21.74
2019-02-24T23:47:34.527Z,21.73
2019-02-24T23:50:38.154Z,21.73
2019-02-24T23:53:41.704Z,21.73
2019-02-24T23:56:46.209Z,21.72
2019-02-24T23:59:50.105Z,21.71
